Aeroporto :
LOGIN :

Iscrizione | Disclaimer

   EN    FR    IT 

 










Sommario :    VFR   VFR Marginale   IFR   IFR Intensivo   IFR Molto Intensivo
Visibilità : 
Base nubi : 
>= 8 km
>= 3000ft
5 / 8 km
1000 / 3000 ft
1500m / 5 km
500 / 1000 ft
800 / 1500m
200 / 500 ft
< 800m
< 200 ft
Simboli :   Temporali  Nebbia  Neve Forte  Precipitazioni Forti  Vento > 20 kt
SIGMETs :   Varie  Temporali  Ghiacco  Turbolenza  Onda orograficha  Ceneri Vulcaniche






- Altitudine del aeroporto : 286 ft
- Codice IATA : FFD


EGVA - RAF Fairford

ULTIMO METAR :
  • 240556Z AUTO 20010KT 9999 FEW055 SCT085 09/09 A2935 RMK AO2 SLP942 60001 T00940088 10094 20055 56027 $

METARs OBSOLETI :
  • 240516Z AUTO 19007KT 9999 SCT014 09/09 A2936 RMK AO2 SLP946 $
  • 240511Z AUTO 18007KT 9999 SCT014 BKN021 09/09 A2936 RMK AO2 CIG 021V055 BKN V SCT SLP946 $
  • 240456Z AUTO 19007KT 9999 FEW019 BKN055 09/08 A2936 RMK AO2 DZE0357 SLP945 P0000 T00900084 $
  • 240427Z AUTO 17007KT 9999 FEW029 SCT036 BKN085 09/08 A2937 RMK AO2 DZE0357 SLP949 $
  • 240407Z AUTO 17006KT 9999 BKN036 OVC050 09/08 A2938 RMK AO2 DZE0357 SLP952 $
  • 240357Z AUTO 16006KT 9999 FEW024 FEW031 OVC050 09/08 A2939 RMK AO2 DZE57 SLP956 $

TAF TAF EGVA
Valido dal 24 a 05 ore il 25 a 11 ore UTC


240530Z 2405/2511 18009KT 9999 SCT020 QNH2935INS
BECMG 2408/2409 22015G25KT 9999 SCT030 QNH2931INS
BECMG 2413/2414 22009KT 9999 SCT040 QNH2929INS
BECMG 2418/2419 VRB04KT 9999 SCT040 QNH2931INS
BECMG 2503/2504 33010G15KT 9999 SCT010 BKN015 620503 QNH2946INS
BECMG 2508/2509 33018G28KT 9999 SCT030 QNH2963INS TX14/2412Z TN06/2500Z



MetMap, La meteo Aeronautica in un colpo d'occhio ! - Copyright ORBIFLY Dicembre 2007 - Disclaimer

ORBIFLY MET'MAP TEAM :

Programmazione e sviluppo : Alexandra Zaïnal
Concezione : Baudouin d'Aumeries
Aiuto per la programmazione : Marc-Olivier Méhu
Supporto tecnico e logistico : Manuel Goepfert
Aiuto per la traduzione : Arnaldo La Scala

Contatto : metmap@orbifly.com




FONTI E CREDITI :

   NOAA